createdAt,value
2023-02-02T00:00:52.413Z,1.44
2023-02-02T00:03:59.043Z,1.17
2023-02-02T00:07:07.531Z,1.27
2023-02-02T00:10:13.948Z,1.32
2023-02-02T00:13:19.964Z,0.96
2023-02-02T00:16:45.352Z,0.97
2023-02-02T00:19:51.288Z,1.23
2023-02-02T00:22:57.571Z,1.02
2023-02-02T00:26:04.027Z,0.68
2023-02-02T00:29:16.117Z,0.79
2023-02-02T00:32:23.867Z,1.03
2023-02-02T00:35:30.017Z,1.00
2023-02-02T00:38:37.884Z,1.13
2023-02-02T00:41:43.882Z,0.99
2023-02-02T00:45:07.766Z,1.03
2023-02-02T00:48:15.459Z,0.59
2023-02-02T00:51:21.463Z,0.62
2023-02-02T00:54:27.768Z,0.68
2023-02-02T00:57:34.023Z,1.05
2023-02-02T01:00:40.277Z,0.99
2023-02-02T01:03:47.871Z,0.85
2023-02-02T01:06:54.188Z,0.53
2023-02-02T01:10:00.388Z,0.68
2023-02-02T01:13:06.412Z,0.74
2023-02-02T01:16:13.227Z,0.84
2023-02-02T01:19:21.116Z,0.59
2023-02-02T01:22:27.845Z,0.73
2023-02-02T01:25:38.375Z,0.84
2023-02-02T01:28:44.758Z,0.86
2023-02-02T01:31:51.534Z,0.70
2023-02-02T01:34:59.350Z,0.66
2023-02-02T01:38:05.698Z,0.78
2023-02-02T01:41:14.864Z,0.77
2023-02-02T01:45:05.792Z,0.78
2023-02-02T01:48:11.889Z,0.71
2023-02-02T01:51:22.392Z,0.92
2023-02-02T01:54:33.604Z,0.87
2023-02-02T01:57:44.285Z,0.93
2023-02-02T02:00:50.814Z,1.09
2023-02-02T02:03:57.896Z,0.93
2023-02-02T02:07:06.737Z,0.93
2023-02-02T02:10:12.991Z,1.23
2023-02-02T02:13:20.741Z,1.40
2023-02-02T02:16:37.383Z,1.47
2023-02-02T02:20:24.617Z,1.63
2023-02-02T02:24:28.119Z,1.69
2023-02-02T02:28:28.539Z,2.14
2023-02-02T02:31:58.913Z,1.81
2023-02-02T02:35:10.947Z,1.50
2023-02-02T02:38:25.989Z,1.85
2023-02-02T02:41:36.702Z,1.73
2023-02-02T02:44:43.559Z,1.86
2023-02-02T02:47:52.681Z,2.15
2023-02-02T02:51:07.843Z,2.08
2023-02-02T02:54:18.166Z,1.94
2023-02-02T02:57:54.124Z,1.93
2023-02-02T03:01:06.566Z,2.41
2023-02-02T03:04:20.679Z,2.36
2023-02-02T03:07:34.177Z,2.47
2023-02-02T03:10:42.304Z,2.54
2023-02-02T03:13:49.066Z,2.68
2023-02-02T03:16:55.241Z,3.03
2023-02-02T03:20:02.651Z,3.08
2023-02-02T03:23:08.769Z,3.06
2023-02-02T03:26:15.270Z,3.22
2023-02-02T03:29:21.549Z,3.15
2023-02-02T03:32:27.940Z,2.93
2023-02-02T03:35:35.774Z,2.96
2023-02-02T03:38:41.933Z,2.91
2023-02-02T03:41:48.246Z,3.03
2023-02-02T03:44:54.355Z,3.17
2023-02-02T03:48:00.677Z,3.06
2023-02-02T03:51:09.269Z,2.99
2023-02-02T03:54:16.040Z,2.89
2023-02-02T03:57:22.213Z,2.92
2023-02-02T04:00:28.190Z,2.71
2023-02-02T04:03:35.012Z,2.71
2023-02-02T04:06:42.477Z,2.70
2023-02-02T04:09:48.590Z,2.54
2023-02-02T04:12:54.644Z,2.58
2023-02-02T04:16:01.335Z,2.63
2023-02-02T04:19:07.407Z,2.51
2023-02-02T04:22:14.512Z,2.42
2023-02-02T04:25:20.566Z,2.33
2023-02-02T04:28:27.659Z,2.30
2023-02-02T04:31:33.865Z,2.25
2023-02-02T04:34:39.875Z,1.97
2023-02-02T04:37:47.569Z,1.98
2023-02-02T04:40:53.652Z,2.50
2023-02-02T04:43:59.638Z,2.50
2023-02-02T04:47:05.677Z,2.62
2023-02-02T04:50:13.460Z,2.69
2023-02-02T04:53:20.794Z,2.70
2023-02-02T04:56:26.983Z,2.72
2023-02-02T04:59:33.142Z,2.84
2023-02-02T05:02:39.962Z,2.59
2023-02-02T05:05:46.187Z,2.58
2023-02-02T05:08:53.364Z,2.43
2023-02-02T05:11:59.337Z,2.03
2023-02-02T05:15:08.364Z,1.88
2023-02-02T05:18:14.524Z,1.74
2023-02-02T05:21:20.519Z,1.68
2023-02-02T05:24:28.617Z,1.67
2023-02-02T05:27:34.917Z,1.58
2023-02-02T05:30:41.526Z,1.64
2023-02-02T05:33:50.781Z,1.76
2023-02-02T05:36:56.930Z,1.69
2023-02-02T05:40:04.539Z,1.65
2023-02-02T05:43:10.745Z,1.67
2023-02-02T05:46:17.425Z,1.58
2023-02-02T05:49:23.784Z,1.69
2023-02-02T05:52:33.155Z,1.68
2023-02-02T05:55:42.203Z,1.94
2023-02-02T05:58:50.024Z,2.12
2023-02-02T06:01:56.148Z,2.52
2023-02-02T06:05:02.304Z,2.57
2023-02-02T06:08:08.437Z,2.57
2023-02-02T06:11:17.700Z,2.49
2023-02-02T06:14:23.642Z,2.52
2023-02-02T06:17:29.492Z,2.54
2023-02-02T06:20:38.345Z,2.73
2023-02-02T06:23:46.041Z,3.07
2023-02-02T06:26:53.662Z,2.94
2023-02-02T06:30:02.363Z,3.22
2023-02-02T06:33:08.725Z,3.83
2023-02-02T06:36:14.816Z,3.86
2023-02-02T06:39:21.003Z,3.66
2023-02-02T06:42:28.632Z,3.36
2023-02-02T06:45:40.214Z,3.58
2023-02-02T06:48:46.319Z,3.68
2023-02-02T06:51:52.230Z,3.84
2023-02-02T06:54:58.346Z,4.25
2023-02-02T06:58:05.726Z,4.11
2023-02-02T07:01:14.514Z,4.21
2023-02-02T07:04:22.324Z,4.41
2023-02-02T07:07:29.264Z,4.43
2023-02-02T07:11:09.353Z,4.50
2023-02-02T07:14:03.255Z,4.52
2023-02-02T07:17:09.318Z,4.48
2023-02-02T07:20:18.477Z,4.69
2023-02-02T07:23:24.586Z,4.86
2023-02-02T07:26:31.170Z,4.89
2023-02-02T07:29:38.632Z,5.25
2023-02-02T07:32:48.182Z,5.44
2023-02-02T07:35:54.874Z,5.36
2023-02-02T07:39:04.029Z,5.64
2023-02-02T07:42:12.715Z,5.92
2023-02-02T07:45:27.435Z,6.13
2023-02-02T07:48:34.384Z,6.29
2023-02-02T07:51:44.302Z,5.66
2023-02-02T07:54:59.865Z,6.08
2023-02-02T07:58:11.514Z,6.59
2023-02-02T08:01:20.530Z,6.24
2023-02-02T08:04:27.239Z,6.33
2023-02-02T08:07:35.515Z,6.35
2023-02-02T08:10:48.387Z,6.47
2023-02-02T08:13:56.734Z,6.00
2023-02-02T08:17:04.611Z,6.28
2023-02-02T08:20:13.127Z,6.43
2023-02-02T08:23:23.691Z,6.52
2023-02-02T08:26:32.355Z,6.67
2023-02-02T08:29:39.893Z,6.93
2023-02-02T08:32:47.331Z,7.06
2023-02-02T08:35:53.611Z,6.77
2023-02-02T08:39:03.043Z,7.18
2023-02-02T08:42:09.175Z,7.45
2023-02-02T08:46:03.305Z,6.82
2023-02-02T08:48:43.022Z,7.09
2023-02-02T08:51:49.030Z,7.21
2023-02-02T08:54:54.996Z,7.35
2023-02-02T08:58:00.955Z,6.68
2023-02-02T09:01:08.726Z,7.11
2023-02-02T09:04:17.345Z,7.50
2023-02-02T09:07:23.606Z,6.92
2023-02-02T09:10:32.026Z,7.18
2023-02-02T09:13:39.694Z,7.49
2023-02-02T09:16:45.709Z,7.16
2023-02-02T09:19:53.157Z,7.57
2023-02-02T09:22:59.096Z,7.71
2023-02-02T09:26:12.615Z,7.66
2023-02-02T09:29:19.077Z,7.19
2023-02-02T09:32:25.346Z,8.09
2023-02-02T09:35:32.815Z,8.33
2023-02-02T09:38:39.823Z,7.65
2023-02-02T09:42:15.603Z,7.70
2023-02-02T09:45:29.542Z,8.06
2023-02-02T09:48:44.607Z,8.04
2023-02-02T09:51:58.272Z,8.10
2023-02-02T09:55:08.332Z,8.85
2023-02-02T09:58:20.863Z,8.81
2023-02-02T10:01:31.853Z,8.95
2023-02-02T10:04:40.520Z,8.91
2023-02-02T10:07:52.878Z,9.39
2023-02-02T10:10:58.827Z,8.67
2023-02-02T10:14:09.085Z,9.36
2023-02-02T10:17:31.610Z,8.47
2023-02-02T10:20:44.956Z,9.13
2023-02-02T10:23:54.730Z,8.87
2023-02-02T10:27:06.195Z,9.09
2023-02-02T10:30:20.655Z,9.34
2023-02-02T10:33:38.184Z,9.64
2023-02-02T10:36:55.373Z,9.09
2023-02-02T10:40:19.108Z,9.51
2023-02-02T10:44:03.672Z,8.96
2023-02-02T10:47:17.903Z,8.15
2023-02-02T10:50:24.846Z,7.68
2023-02-02T10:53:33.393Z,8.01
2023-02-02T10:56:47.229Z,8.44
2023-02-02T11:00:02.931Z,9.17
2023-02-02T11:03:12.291Z,8.49
2023-02-02T11:06:36.118Z,9.19
2023-02-02T11:09:44.093Z,7.99
2023-02-02T11:12:53.222Z,8.27
2023-02-02T11:16:42.086Z,8.57
2023-02-02T11:19:50.306Z,8.43
2023-02-02T11:23:04.428Z,8.53
2023-02-02T11:26:10.914Z,8.44
2023-02-02T11:29:26.783Z,8.01
2023-02-02T11:32:34.029Z,8.44
2023-02-02T11:35:55.053Z,8.35
2023-02-02T11:39:16.548Z,8.45
2023-02-02T11:42:25.314Z,8.42
2023-02-02T11:45:36.502Z,8.61
2023-02-02T11:48:51.675Z,8.63
2023-02-02T11:52:00.323Z,8.70
2023-02-02T11:55:16.326Z,8.63
2023-02-02T11:58:28.717Z,8.33
2023-02-02T12:01:39.849Z,8.62
2023-02-02T12:04:45.860Z,8.58
2023-02-02T12:07:51.968Z,8.57
2023-02-02T12:11:03.129Z,9.43
2023-02-02T12:14:32.262Z,9.47
2023-02-02T12:17:43.140Z,9.73
2023-02-02T12:20:57.121Z,9.65
2023-02-02T12:24:17.073Z,9.54
2023-02-02T12:27:36.656Z,9.34
2023-02-02T12:30:53.769Z,9.12
2023-02-02T12:34:12.077Z,9.39
2023-02-02T12:37:27.267Z,9.36
2023-02-02T12:40:58.489Z,9.42
2023-02-02T12:44:14.496Z,9.03
2023-02-02T12:47:28.724Z,9.15
2023-02-02T12:50:44.646Z,9.09
2023-02-02T12:54:33.393Z,8.76
2023-02-02T12:57:54.289Z,8.66
2023-02-02T13:01:28.393Z,9.25
2023-02-02T13:04:50.273Z,9.34
2023-02-02T13:08:01.855Z,10.08
2023-02-02T13:11:30.048Z,9.84
2023-02-02T13:14:39.495Z,9.80
2023-02-02T13:17:52.005Z,8.97
2023-02-02T13:21:02.849Z,9.02
2023-02-02T13:24:17.168Z,9.31
2023-02-02T13:27:25.261Z,9.42
2023-02-02T13:30:34.395Z,9.32
2023-02-02T13:33:42.952Z,9.19
2023-02-02T13:36:53.968Z,9.65
2023-02-02T13:40:05.908Z,9.78
2023-02-02T13:43:29.115Z,9.61
2023-02-02T13:46:40.888Z,9.17
2023-02-02T13:49:54.378Z,9.06
2023-02-02T13:53:34.844Z,9.02
2023-02-02T13:56:52.522Z,9.01
2023-02-02T14:00:03.545Z,9.07
2023-02-02T14:03:38.889Z,8.92
2023-02-02T14:06:57.529Z,8.86
2023-02-02T14:10:04.556Z,8.15
2023-02-02T14:13:38.439Z,8.75
2023-02-02T14:16:56.285Z,8.41
2023-02-02T14:20:03.936Z,8.23
2023-02-02T14:23:55.610Z,7.88
2023-02-02T14:27:03.401Z,8.20
2023-02-02T14:30:24.735Z,8.06
2023-02-02T14:33:47.695Z,7.81
2023-02-02T14:37:07.237Z,7.63
2023-02-02T14:40:31.320Z,7.69
2023-02-02T14:43:46.404Z,7.70
2023-02-02T14:46:54.169Z,7.71
2023-02-02T14:50:00.755Z,7.62
2023-02-02T14:53:10.538Z,7.65
2023-02-02T14:56:20.027Z,7.52
2023-02-02T14:59:30.671Z,7.32
2023-02-02T15:02:39.507Z,7.44
2023-02-02T15:05:46.587Z,7.45
2023-02-02T15:09:26.921Z,6.92
2023-02-02T15:12:36.661Z,6.97
2023-02-02T15:15:44.269Z,7.01
2023-02-02T15:19:01.005Z,6.86
2023-02-02T15:22:28.321Z,6.77
2023-02-02T15:25:42.578Z,6.61
2023-02-02T15:28:54.532Z,6.11
2023-02-02T15:32:01.647Z,6.04
2023-02-02T15:35:18.763Z,5.96
2023-02-02T15:38:33.175Z,5.80
2023-02-02T15:41:44.374Z,5.70
2023-02-02T15:44:51.070Z,5.72
2023-02-02T15:48:04.158Z,5.49
2023-02-02T15:51:17.580Z,5.12
2023-02-02T15:54:26.175Z,5.00
2023-02-02T15:57:34.363Z,5.07
2023-02-02T16:00:41.402Z,5.05
2023-02-02T16:03:53.963Z,4.79
2023-02-02T16:07:02.409Z,5.03
2023-02-02T16:10:10.191Z,4.73
2023-02-02T16:13:27.077Z,4.39
2023-02-02T16:16:35.096Z,3.47
2023-02-02T16:19:44.389Z,3.42
2023-02-02T16:22:52.666Z,3.33
2023-02-02T16:26:01.491Z,2.85
2023-02-02T16:29:08.491Z,3.11
2023-02-02T16:32:28.896Z,2.71
2023-02-02T16:35:36.453Z,3.14
2023-02-02T16:38:43.756Z,2.82
2023-02-02T16:41:50.924Z,3.13
2023-02-02T16:44:59.381Z,3.21
2023-02-02T16:48:29.946Z,3.39
2023-02-02T16:51:37.117Z,3.07
2023-02-02T16:54:53.007Z,2.90
2023-02-02T16:58:00.404Z,3.16
2023-02-02T17:01:15.459Z,3.08
2023-02-02T17:04:26.177Z,3.21
2023-02-02T17:07:34.317Z,3.28
2023-02-02T17:10:44.080Z,3.06
2023-02-02T17:13:51.056Z,3.21
2023-02-02T17:16:57.053Z,3.19
2023-02-02T17:20:03.151Z,3.20
2023-02-02T17:23:10.061Z,3.12
2023-02-02T17:26:18.081Z,3.07
2023-02-02T17:29:25.280Z,3.01
2023-02-02T17:32:32.081Z,3.33
2023-02-02T17:35:52.989Z,2.92
2023-02-02T17:39:00.579Z,2.96
2023-02-02T17:42:18.299Z,2.90
2023-02-02T17:45:30.097Z,3.18
2023-02-02T17:48:37.579Z,3.38
2023-02-02T17:51:44.559Z,3.67
2023-02-02T17:54:50.846Z,3.72
2023-02-02T17:57:59.048Z,3.52
2023-02-02T18:01:05.436Z,2.86
2023-02-02T18:04:13.475Z,2.50
2023-02-02T18:07:19.683Z,2.51
2023-02-02T18:10:27.407Z,2.25
2023-02-02T18:13:35.411Z,2.10
2023-02-02T18:16:41.869Z,2.11
2023-02-02T18:19:51.200Z,2.15
2023-02-02T18:22:57.403Z,2.05
2023-02-02T18:26:13.473Z,2.14
2023-02-02T18:29:21.140Z,2.06
2023-02-02T18:32:27.129Z,2.16
2023-02-02T18:35:33.071Z,2.15
2023-02-02T18:38:39.968Z,2.56
2023-02-02T18:41:46.465Z,2.90
2023-02-02T18:44:54.112Z,2.95
2023-02-02T18:48:00.581Z,2.99
2023-02-02T18:51:07.127Z,2.86
2023-02-02T18:54:13.913Z,2.74
2023-02-02T18:57:20.389Z,2.64
2023-02-02T19:00:28.447Z,2.47
2023-02-02T19:03:36.665Z,2.37
2023-02-02T19:07:00.561Z,2.47
2023-02-02T19:10:07.670Z,2.41
2023-02-02T19:13:18.348Z,2.08
2023-02-02T19:16:27.863Z,2.28
2023-02-02T19:19:35.329Z,2.25
2023-02-02T19:22:42.698Z,2.11
2023-02-02T19:25:52.257Z,2.18
2023-02-02T19:29:09.410Z,2.38
2023-02-02T19:32:21.927Z,2.50
2023-02-02T19:35:29.524Z,2.50
2023-02-02T19:38:36.234Z,2.67
2023-02-02T19:41:43.363Z,2.95
2023-02-02T19:44:50.085Z,2.30
2023-02-02T19:47:59.593Z,2.77
2023-02-02T19:51:29.134Z,2.39
2023-02-02T19:54:37.232Z,2.06
2023-02-02T19:57:43.602Z,2.23
2023-02-02T20:00:51.594Z,2.24
2023-02-02T20:03:59.436Z,2.01
2023-02-02T20:07:13.762Z,2.25
2023-02-02T20:10:22.992Z,2.38
2023-02-02T20:13:36.975Z,2.15
2023-02-02T20:16:46.304Z,2.57
2023-02-02T20:19:54.330Z,2.14
2023-02-02T20:23:00.674Z,2.29
2023-02-02T20:26:18.484Z,2.75
2023-02-02T20:29:27.396Z,2.57
2023-02-02T20:32:40.820Z,2.38
2023-02-02T20:35:48.269Z,2.71
2023-02-02T20:38:54.726Z,2.27
2023-02-02T20:42:01.280Z,2.70
2023-02-02T20:45:07.851Z,2.86
2023-02-02T20:48:15.449Z,2.76
2023-02-02T20:51:23.221Z,2.62
2023-02-02T20:54:30.720Z,2.63
2023-02-02T20:57:38.751Z,2.92
2023-02-02T21:00:45.248Z,3.06
2023-02-02T21:03:51.362Z,2.88
2023-02-02T21:06:59.638Z,3.02
2023-02-02T21:10:06.593Z,3.15
2023-02-02T21:13:13.303Z,2.91
2023-02-02T21:16:19.522Z,2.84
2023-02-02T21:19:25.743Z,2.28
2023-02-02T21:22:33.034Z,2.56
2023-02-02T21:25:39.028Z,2.62
2023-02-02T21:28:45.551Z,2.85
2023-02-02T21:31:51.567Z,2.71
2023-02-02T21:34:58.989Z,2.59
2023-02-02T21:38:16.188Z,2.75
2023-02-02T21:41:31.705Z,2.82
2023-02-02T21:44:39.438Z,2.71
2023-02-02T21:47:52.570Z,2.76
2023-02-02T21:50:58.758Z,2.65
2023-02-02T21:54:19.064Z,2.72
2023-02-02T21:57:36.366Z,2.49
2023-02-02T22:00:42.677Z,2.65
2023-02-02T22:03:50.409Z,2.56
2023-02-02T22:07:00.300Z,2.54
2023-02-02T22:10:26.726Z,2.31
2023-02-02T22:13:35.971Z,2.07
2023-02-02T22:16:48.786Z,2.38
2023-02-02T22:19:59.599Z,2.29
2023-02-02T22:23:05.811Z,2.62
2023-02-02T22:26:29.424Z,2.70
2023-02-02T22:29:36.632Z,2.70
2023-02-02T22:32:42.955Z,2.47
2023-02-02T22:35:49.904Z,2.61
2023-02-02T22:38:56.052Z,2.35
2023-02-02T22:42:03.551Z,2.35
2023-02-02T22:45:10.735Z,2.66
2023-02-02T22:48:17.782Z,2.34
2023-02-02T22:51:24.320Z,2.45
2023-02-02T22:54:31.157Z,2.21
2023-02-02T22:57:39.069Z,2.30
2023-02-02T23:00:45.371Z,2.03
2023-02-02T23:03:51.757Z,2.29
2023-02-02T23:06:57.780Z,2.51
2023-02-02T23:10:04.160Z,2.62
2023-02-02T23:13:11.624Z,2.29
2023-02-02T23:16:19.337Z,2.19
2023-02-02T23:19:25.317Z,2.56
2023-02-02T23:22:31.558Z,2.72
2023-02-02T23:25:37.809Z,2.79
2023-02-02T23:28:45.776Z,2.79
2023-02-02T23:31:52.431Z,2.71
2023-02-02T23:34:58.802Z,2.54
2023-02-02T23:38:05.202Z,2.67
2023-02-02T23:41:11.374Z,2.65
2023-02-02T23:44:18.859Z,2.41
2023-02-02T23:47:26.913Z,2.54
2023-02-02T23:50:34.725Z,2.44
2023-02-02T23:53:41.155Z,2.19
2023-02-02T23:56:47.371Z,2.31
2023-02-02T23:59:55.071Z,2.48
